Santa Fe, Illinois
Current Conditions -  °F | °C
As of 9:35 AM on Friday 24 Oct 2014 (Local Time) from KENL Reporting Station
Overcast Overcast  
Wind Chill: 57°   Ceiling: 1100
Heat Index: 57°   Visibility: 10mi
Dew Point: 49°   Wind: 3mph
Humidity: 74%   Direction: 250°WSW
Pressure: 30.11"   Gusts: NA
Location:  38.5271°N, 89.4497°W
Report Text: KENL 241435Z AUTO 25003KT 10SM BKN011 OVC024 14/09 A3011 RMK AO2 T01370092
Loading
Personal Weather Stations






























Interactive Weather Map
Tropical Storm Tracking
New forecast layout! Learn more

10-Day Weather Forecast

Advertisements
Track Severe Weather on mobile